createdAt,value
2018-06-17T00:00:33.964Z,74.26
2018-06-17T00:03:03.222Z,74.06
2018-06-17T00:05:32.523Z,74.45
2018-06-17T00:08:01.818Z,75.54
2018-06-17T00:10:31.109Z,75.61
2018-06-17T00:13:00.440Z,75.24
2018-06-17T00:15:29.778Z,75.52
2018-06-17T00:17:59.042Z,75.69
2018-06-17T00:20:28.351Z,75.83
2018-06-17T00:22:57.606Z,75.67
2018-06-17T00:25:26.854Z,75.70
2018-06-17T00:27:56.642Z,75.12
2018-06-17T00:30:25.854Z,75.53
2018-06-17T00:32:55.147Z,75.15
2018-06-17T00:35:24.355Z,75.36
2018-06-17T00:37:53.606Z,76.38
2018-06-17T00:40:22.832Z,76.06
2018-06-17T00:42:52.059Z,75.45
2018-06-17T00:45:21.341Z,75.43
2018-06-17T00:47:50.549Z,75.29
2018-06-17T00:50:19.775Z,75.64
2018-06-17T00:52:49.009Z,75.16
2018-06-17T00:55:18.235Z,75.50
2018-06-17T00:57:50.239Z,75.71
2018-06-17T01:00:25.129Z,75.01
2018-06-17T01:02:54.389Z,75.15
2018-06-17T01:05:23.631Z,74.83
2018-06-17T01:07:52.830Z,75.11
2018-06-17T01:10:22.091Z,75.40
2018-06-17T01:12:51.347Z,75.69
2018-06-17T01:15:20.638Z,75.11
2018-06-17T01:17:49.891Z,75.55
2018-06-17T01:20:19.169Z,75.55
2018-06-17T01:22:48.463Z,75.16
2018-06-17T01:25:17.704Z,75.85
2018-06-17T01:27:46.910Z,75.70
2018-06-17T01:30:16.174Z,75.36
2018-06-17T01:32:45.396Z,75.75
2018-06-17T01:35:14.635Z,76.10
2018-06-17T01:37:43.836Z,75.40
2018-06-17T01:40:13.074Z,75.65
2018-06-17T01:42:42.290Z,76.01
2018-06-17T01:45:11.520Z,76.37
2018-06-17T01:47:40.727Z,75.63
2018-06-17T01:50:09.717Z,76.18
2018-06-17T01:52:38.955Z,76.03
2018-06-17T01:55:08.209Z,76.52
2018-06-17T01:57:37.483Z,76.41
2018-06-17T02:00:06.778Z,75.77
2018-06-17T02:02:35.990Z,75.23
2018-06-17T02:05:10.555Z,75.20
2018-06-17T02:07:44.987Z,75.69
2018-06-17T02:10:19.364Z,75.53
2018-06-17T02:12:48.594Z,75.38
2018-06-17T02:15:17.911Z,76.35
2018-06-17T02:17:47.179Z,75.72
2018-06-17T02:20:16.447Z,76.15
2018-06-17T02:22:45.682Z,76.62
2018-06-17T02:25:14.935Z,75.53
2018-06-17T02:27:44.154Z,75.69
2018-06-17T02:30:13.389Z,75.56
2018-06-17T02:32:42.674Z,76.20
2018-06-17T02:35:11.927Z,76.39
2018-06-17T02:37:41.172Z,75.83
2018-06-17T02:40:10.404Z,75.83
2018-06-17T02:42:39.642Z,75.43
2018-06-17T02:45:14.038Z,75.24
2018-06-17T02:47:48.555Z,74.24
2018-06-17T02:50:22.996Z,74.65
2018-06-17T02:52:57.417Z,74.30
2018-06-17T02:55:26.721Z,75.43
2018-06-17T02:57:55.956Z,75.72
2018-06-17T03:00:25.248Z,75.93
2018-06-17T03:02:54.229Z,76.47
2018-06-17T03:05:23.237Z,76.18
2018-06-17T03:07:52.482Z,75.50
2018-06-17T03:10:21.755Z,76.61
2018-06-17T03:12:51.040Z,77.07
2018-06-17T03:15:20.283Z,76.75
2018-06-17T03:17:49.503Z,75.83
2018-06-17T03:20:24.961Z,77.10
2018-06-17T03:22:54.189Z,77.39
2018-06-17T03:25:28.568Z,76.46
2018-06-17T03:28:02.979Z,75.18
2018-06-17T03:30:37.399Z,76.50
2018-06-17T03:33:11.767Z,76.34
2018-06-17T03:35:46.123Z,76.30
2018-06-17T03:38:15.351Z,75.17
2018-06-17T03:40:44.539Z,74.72
2018-06-17T03:43:13.770Z,74.03
2018-06-17T03:45:42.999Z,72.63
2018-06-17T03:48:12.222Z,72.54
2018-06-17T03:50:41.439Z,72.29
2018-06-17T03:53:10.640Z,72.65
2018-06-17T03:55:39.849Z,72.89
2018-06-17T03:58:09.099Z,72.95
2018-06-17T04:00:38.303Z,72.89
2018-06-17T04:03:07.607Z,73.42
2018-06-17T04:05:36.851Z,73.19
2018-06-17T04:08:06.047Z,72.29
2018-06-17T04:10:35.234Z,72.87
2018-06-17T04:13:04.494Z,72.74
2018-06-17T04:15:36.830Z,72.35
2018-06-17T04:18:07.614Z,72.38
2018-06-17T04:20:37.135Z,72.54
2018-06-17T04:23:06.514Z,72.78
2018-06-17T04:25:36.405Z,72.93
2018-06-17T04:28:05.663Z,72.23
2018-06-17T04:30:34.874Z,73.11
2018-06-17T04:33:04.256Z,73.49
2018-06-17T04:35:33.682Z,72.15
2018-06-17T04:38:02.911Z,72.68
2018-06-17T04:40:32.145Z,72.83
2018-06-17T04:43:01.500Z,72.92
2018-06-17T04:45:30.514Z,73.06
2018-06-17T04:47:59.825Z,72.80
2018-06-17T04:50:29.188Z,72.50
2018-06-17T04:52:58.480Z,73.12
2018-06-17T04:55:27.838Z,72.82
2018-06-17T04:57:57.116Z,72.82
2018-06-17T05:00:26.358Z,71.69
2018-06-17T05:02:55.591Z,70.06
2018-06-17T05:05:24.865Z,70.34
2018-06-17T05:07:54.142Z,71.02
2018-06-17T05:10:23.404Z,70.95
2018-06-17T05:12:52.622Z,70.50
2018-06-17T05:15:21.610Z,70.24
2018-06-17T05:17:50.814Z,70.86
2018-06-17T05:20:19.995Z,71.84
2018-06-17T05:22:49.242Z,72.30
2018-06-17T05:25:18.544Z,72.82
2018-06-17T05:27:47.823Z,72.66
2018-06-17T05:30:17.066Z,72.45
2018-06-17T05:32:46.334Z,73.58
2018-06-17T05:35:15.579Z,74.20
2018-06-17T05:37:44.811Z,72.88
2018-06-17T05:40:14.077Z,74.06
2018-06-17T05:42:43.331Z,73.44
2018-06-17T05:45:12.585Z,73.85
2018-06-17T05:47:41.799Z,74.41
2018-06-17T05:50:10.803Z,74.82
2018-06-17T05:52:39.781Z,76.69
2018-06-17T05:55:09.019Z,79.24
2018-06-17T05:57:38.214Z,80.12
2018-06-17T06:00:07.438Z,80.86
2018-06-17T06:02:36.647Z,81.64
2018-06-17T06:05:06.175Z,81.46
2018-06-17T06:07:35.346Z,83.06
2018-06-17T06:10:04.612Z,85.53
2018-06-17T06:12:33.574Z,85.91
2018-06-17T06:15:02.857Z,84.20
2018-06-17T06:17:32.092Z,84.76
2018-06-17T06:20:01.339Z,82.97
2018-06-17T06:22:30.632Z,83.28
2018-06-17T06:24:59.883Z,81.30
2018-06-17T06:27:29.156Z,82.79
2018-06-17T06:29:58.376Z,80.32
2018-06-17T06:32:28.027Z,78.94
2018-06-17T06:34:57.430Z,77.67
2018-06-17T06:37:26.610Z,80.29
2018-06-17T06:39:55.910Z,78.19
2018-06-17T06:42:25.180Z,78.11
2018-06-17T06:44:54.415Z,77.08
2018-06-17T06:47:23.398Z,75.20
2018-06-17T06:49:52.669Z,73.28
2018-06-17T06:52:22.005Z,77.39
2018-06-17T06:54:51.315Z,75.63
2018-06-17T06:57:20.663Z,75.00
2018-06-17T06:59:49.975Z,72.60
2018-06-17T07:02:36.372Z,67.98
2018-06-17T07:05:22.595Z,66.15
2018-06-17T07:08:08.931Z,67.06
2018-06-17T07:10:38.184Z,67.68
2018-06-17T07:13:07.458Z,69.51
2018-06-17T07:15:53.746Z,65.27
2018-06-17T07:18:32.873Z,67.98
2018-06-17T07:21:01.918Z,67.85
2018-06-17T07:23:31.255Z,66.86
2018-06-17T07:26:44.761Z,67.07
2018-06-17T07:29:33.087Z,65.65
2018-06-17T07:32:02.340Z,64.12
2018-06-17T07:34:31.609Z,61.91
2018-06-17T07:37:00.851Z,62.63
2018-06-17T07:41:43.419Z,61.18
2018-06-17T07:44:12.650Z,58.84
2018-06-17T07:46:41.974Z,60.33
2018-06-17T07:49:42.413Z,55.91
2018-06-17T07:53:27.063Z,56.40
2018-06-17T07:55:56.326Z,59.40
2018-06-17T07:58:25.639Z,56.07
2018-06-17T08:00:54.825Z,56.63
2018-06-17T08:03:24.117Z,57.47
2018-06-17T08:05:53.455Z,56.60
2018-06-17T08:08:22.752Z,55.88
2018-06-17T08:10:52.020Z,54.68
2018-06-17T08:13:21.364Z,55.95
2018-06-17T08:15:50.639Z,55.14
2018-06-17T08:18:19.910Z,52.71
2018-06-17T08:20:49.284Z,52.72
2018-06-17T08:23:18.618Z,53.93
2018-06-17T08:25:47.939Z,52.18
2018-06-17T08:28:17.253Z,51.51
2018-06-17T08:30:46.485Z,52.93
2018-06-17T08:33:15.784Z,53.29
2018-06-17T08:35:45.031Z,53.40
2018-06-17T08:38:14.254Z,51.78
2018-06-17T08:40:43.527Z,53.27
2018-06-17T08:43:12.747Z,52.88
2018-06-17T08:45:42.010Z,52.30
2018-06-17T08:48:11.266Z,50.27
2018-06-17T08:50:40.465Z,50.73
2018-06-17T08:53:09.695Z,48.82
2018-06-17T08:55:38.951Z,49.19
2018-06-17T08:58:08.459Z,50.52
2018-06-17T09:00:37.705Z,52.03
2018-06-17T09:03:07.026Z,53.78
2018-06-17T09:05:36.473Z,52.07
2018-06-17T09:08:05.831Z,48.79
2018-06-17T09:10:35.206Z,47.00
2018-06-17T09:13:04.456Z,44.96
2018-06-17T09:15:33.818Z,46.10
2018-06-17T09:18:02.820Z,45.04
2018-06-17T09:20:32.092Z,45.22
2018-06-17T09:23:01.329Z,46.45
2018-06-17T09:25:30.766Z,45.51
2018-06-17T09:28:00.108Z,48.84
2018-06-17T09:30:29.532Z,51.49
2018-06-17T09:35:27.397Z,51.78
2018-06-17T09:37:56.729Z,52.46
2018-06-17T09:40:26.071Z,50.25
2018-06-17T09:42:55.846Z,50.23
2018-06-17T09:45:25.459Z,48.49
2018-06-17T09:47:55.087Z,46.75
2018-06-17T09:50:24.521Z,46.30
2018-06-17T09:52:54.014Z,44.30
2018-06-17T09:55:23.492Z,46.43
2018-06-17T09:57:52.923Z,47.96
2018-06-17T10:00:23.594Z,48.21
2018-06-17T10:02:54.702Z,46.01
2018-06-17T10:05:24.800Z,45.57
2018-06-17T10:07:54.236Z,45.69
2018-06-17T10:10:50.946Z,44.73
2018-06-17T10:13:21.215Z,44.54
2018-06-17T10:15:51.388Z,46.12
2018-06-17T10:18:21.471Z,47.33
2018-06-17T10:20:50.993Z,45.48
2018-06-17T10:23:20.892Z,43.81
2018-06-17T10:25:50.681Z,43.31
2018-06-17T10:28:21.140Z,41.53
2018-06-17T10:30:51.795Z,43.32
2018-06-17T10:33:21.345Z,43.44
2018-06-17T10:35:51.102Z,42.86
2018-06-17T10:38:20.762Z,41.43
2018-06-17T10:40:50.134Z,43.69
2018-06-17T10:43:21.316Z,42.28
2018-06-17T10:45:51.049Z,43.08
2018-06-17T10:48:20.703Z,41.27
2018-06-17T10:50:50.542Z,41.86
2018-06-17T10:53:20.330Z,44.10
2018-06-17T10:55:50.092Z,42.74
2018-06-17T10:58:19.608Z,43.55
2018-06-17T11:00:49.233Z,42.71
2018-06-17T11:03:18.667Z,46.41
2018-06-17T11:05:48.461Z,44.34
2018-06-17T11:08:17.938Z,44.41
2018-06-17T11:10:47.475Z,43.75
2018-06-17T11:13:16.923Z,44.62
2018-06-17T11:15:46.468Z,44.08
2018-06-17T11:18:15.855Z,42.76
2018-06-17T11:20:45.313Z,41.38
2018-06-17T11:23:14.774Z,43.59
2018-06-17T11:25:44.223Z,43.37
2018-06-17T11:28:13.779Z,45.70
2018-06-17T11:30:43.190Z,45.61
2018-06-17T11:33:12.590Z,47.04
2018-06-17T11:35:42.209Z,48.22
2018-06-17T11:38:11.703Z,47.87
2018-06-17T11:40:41.112Z,47.72
2018-06-17T11:43:10.584Z,48.54
2018-06-17T11:45:39.948Z,47.83
2018-06-17T11:48:09.503Z,48.12
2018-06-17T11:50:38.811Z,47.76
2018-06-17T11:53:08.083Z,46.98
2018-06-17T11:55:37.391Z,46.46
2018-06-17T11:58:06.685Z,46.15
2018-06-17T12:00:35.906Z,45.24
2018-06-17T12:03:05.262Z,45.26
2018-06-17T12:05:34.577Z,44.57
2018-06-17T12:08:03.979Z,46.08
2018-06-17T12:10:33.383Z,45.51
2018-06-17T12:13:02.853Z,46.84
2018-06-17T12:15:32.288Z,46.13
2018-06-17T12:18:01.643Z,47.35
2018-06-17T12:20:30.940Z,46.43
2018-06-17T12:23:00.275Z,47.44
2018-06-17T12:25:29.691Z,47.27
2018-06-17T12:27:58.990Z,48.87
2018-06-17T12:30:28.365Z,49.30
2018-06-17T12:32:57.446Z,51.04
2018-06-17T12:35:26.810Z,49.11
2018-06-17T12:37:56.143Z,48.94
2018-06-17T12:40:25.463Z,50.50
2018-06-17T12:42:54.740Z,50.27
2018-06-17T12:45:24.266Z,51.27
2018-06-17T12:47:53.742Z,49.85
2018-06-17T12:50:23.232Z,49.62
2018-06-17T12:52:52.616Z,49.75
2018-06-17T12:55:21.991Z,49.36
2018-06-17T12:57:51.411Z,46.99
2018-06-17T13:00:20.825Z,46.36
2018-06-17T13:02:50.328Z,45.39
2018-06-17T13:05:19.794Z,45.44
2018-06-17T13:07:50.072Z,45.76
2018-06-17T13:10:19.510Z,44.91
2018-06-17T13:12:49.011Z,43.94
2018-06-17T13:15:18.428Z,43.27
2018-06-17T13:17:47.696Z,42.47
2018-06-17T13:20:17.051Z,43.39
2018-06-17T13:22:46.415Z,43.13
2018-06-17T13:25:15.813Z,43.07
2018-06-17T13:27:45.185Z,42.69
2018-06-17T13:30:14.554Z,46.31
2018-06-17T13:32:43.894Z,43.83
2018-06-17T13:35:13.332Z,44.48
2018-06-17T13:37:43.738Z,43.30
2018-06-17T13:40:13.781Z,44.02
2018-06-17T13:42:43.346Z,42.45
2018-06-17T13:45:12.651Z,42.46
2018-06-17T13:47:41.888Z,42.20
2018-06-17T13:50:11.098Z,40.60
2018-06-17T13:52:40.295Z,41.88
2018-06-17T13:55:09.754Z,40.52
2018-06-17T13:57:39.043Z,42.75
2018-06-17T14:00:09.424Z,41.80
2018-06-17T14:02:38.687Z,41.54
2018-06-17T14:05:07.964Z,41.87
2018-06-17T14:07:37.281Z,42.51
2018-06-17T14:10:07.035Z,42.78
2018-06-17T14:12:36.343Z,44.26
2018-06-17T14:15:06.187Z,46.58
2018-06-17T14:17:35.513Z,46.52
2018-06-17T14:20:06.157Z,46.63
2018-06-17T14:22:35.521Z,46.68
2018-06-17T14:25:05.539Z,46.30
2018-06-17T14:27:34.783Z,45.33
2018-06-17T14:30:04.275Z,45.37
2018-06-17T14:32:33.658Z,43.95
2018-06-17T14:35:02.964Z,43.65
2018-06-17T14:37:32.331Z,45.46
2018-06-17T14:40:01.657Z,46.57
2018-06-17T14:42:36.178Z,46.44
2018-06-17T14:45:10.819Z,47.50
2018-06-17T14:49:53.046Z,47.01
2018-06-17T14:52:26.430Z,48.41
2018-06-17T14:54:57.735Z,47.91
2018-06-17T14:57:27.712Z,48.76
2018-06-17T14:59:56.902Z,49.34
2018-06-17T15:02:26.243Z,50.94
2018-06-17T15:04:55.251Z,50.31
2018-06-17T15:07:24.837Z,50.47
2018-06-17T15:09:54.205Z,51.64
2018-06-17T15:12:23.569Z,51.00
2018-06-17T15:14:53.111Z,49.37
2018-06-17T15:17:22.509Z,50.71
2018-06-17T15:19:51.958Z,50.41
2018-06-17T15:22:21.412Z,49.60
2018-06-17T15:24:50.748Z,49.68
2018-06-17T15:27:20.109Z,49.30
2018-06-17T15:29:49.579Z,49.37
2018-06-17T15:32:24.188Z,50.12
2018-06-17T15:34:58.657Z,51.04
2018-06-17T15:37:32.910Z,51.34
2018-06-17T15:40:02.212Z,51.39
2018-06-17T15:42:31.507Z,51.40
2018-06-17T15:45:00.897Z,51.38
2018-06-17T15:47:30.239Z,51.74
2018-06-17T15:49:59.534Z,51.26
2018-06-17T15:52:28.894Z,50.31
2018-06-17T15:54:58.263Z,50.62
2018-06-17T15:57:27.602Z,49.90
2018-06-17T15:59:57.036Z,50.01
2018-06-17T16:02:26.442Z,50.22
2018-06-17T16:04:55.963Z,50.34
2018-06-17T16:07:25.319Z,50.03
2018-06-17T16:09:54.798Z,49.94
2018-06-17T16:12:29.301Z,49.21
2018-06-17T16:15:03.787Z,50.29
2018-06-17T16:17:38.196Z,51.37
2018-06-17T16:20:13.948Z,51.09
2018-06-17T16:22:44.706Z,51.29
2018-06-17T16:25:15.685Z,49.56
2018-06-17T16:27:57.315Z,49.91
2018-06-17T16:30:29.230Z,51.22
2018-06-17T16:33:01.481Z,50.97
2018-06-17T16:35:34.896Z,50.93
2018-06-17T16:38:05.862Z,52.05
2018-06-17T16:40:36.607Z,52.29
2018-06-17T16:43:07.426Z,52.98
2018-06-17T16:45:39.620Z,53.01
2018-06-17T16:48:10.024Z,53.36
2018-06-17T16:50:40.721Z,53.66
2018-06-17T16:53:16.881Z,54.18
2018-06-17T16:55:53.232Z,53.83
2018-06-17T16:58:31.170Z,52.88
2018-06-17T17:01:02.731Z,53.62
2018-06-17T17:03:32.627Z,53.70
2018-06-17T17:06:03.859Z,51.68
2018-06-17T17:08:34.780Z,50.89
2018-06-17T17:11:05.417Z,50.92
2018-06-17T17:13:36.394Z,51.32
2018-06-17T17:16:06.812Z,50.20
2018-06-17T17:18:37.561Z,51.34
2018-06-17T17:21:08.292Z,52.18
2018-06-17T17:23:40.192Z,50.94
2018-06-17T17:26:11.329Z,50.58
2018-06-17T17:28:42.365Z,51.54
2018-06-17T17:31:13.626Z,51.38
2018-06-17T17:33:49.432Z,51.60
2018-06-17T17:36:24.272Z,51.41
2018-06-17T17:39:01.890Z,52.30
2018-06-17T17:41:34.051Z,52.09
2018-06-17T17:44:04.898Z,52.05
2018-06-17T17:46:40.051Z,51.98
2018-06-17T17:49:10.257Z,53.56
2018-06-17T17:51:39.649Z,53.43
2018-06-17T17:54:09.090Z,52.75
2018-06-17T17:56:38.523Z,52.65
2018-06-17T17:59:08.230Z,53.22
2018-06-17T18:01:37.660Z,53.64
2018-06-17T18:04:06.961Z,53.84
2018-06-17T18:06:36.256Z,54.67
2018-06-17T18:09:08.835Z,55.36
2018-06-17T18:11:38.344Z,55.54
2018-06-17T18:14:07.662Z,55.62
2018-06-17T18:16:36.979Z,55.05
2018-06-17T18:19:06.317Z,56.32
2018-06-17T18:21:35.649Z,55.95
2018-06-17T18:24:04.989Z,55.54
2018-06-17T18:26:39.450Z,56.90
2018-06-17T18:29:14.066Z,56.52
2018-06-17T18:31:48.742Z,57.42
2018-06-17T18:34:23.231Z,57.58
2018-06-17T18:36:52.630Z,57.78
2018-06-17T18:39:21.946Z,57.26
2018-06-17T18:41:51.348Z,57.78
2018-06-17T18:44:20.659Z,58.12
2018-06-17T18:46:50.353Z,58.77
2018-06-17T18:49:19.759Z,58.60
2018-06-17T18:51:49.440Z,58.94
2018-06-17T18:54:18.804Z,59.25
2018-06-17T18:56:48.315Z,60.13
2018-06-17T18:59:17.664Z,59.63
2018-06-17T19:01:47.032Z,59.81
2018-06-17T19:04:16.424Z,60.96
2018-06-17T19:06:45.840Z,60.34
2018-06-17T19:09:20.448Z,61.18
2018-06-17T19:11:54.880Z,60.86
2018-06-17T19:14:29.444Z,60.81
2018-06-17T19:17:04.399Z,61.15
2018-06-17T19:19:33.779Z,60.93
2018-06-17T19:22:03.133Z,61.20
2018-06-17T19:24:32.480Z,60.57
2018-06-17T19:27:01.817Z,60.12
2018-06-17T19:29:31.094Z,60.77
2018-06-17T19:32:00.382Z,58.11
2018-06-17T19:34:29.676Z,59.30
2018-06-17T19:36:59.045Z,58.60
2018-06-17T19:39:28.350Z,58.35
2018-06-17T19:41:57.685Z,58.43
2018-06-17T19:44:26.985Z,58.12
2018-06-17T19:46:56.396Z,58.82
2018-06-17T19:49:30.777Z,58.79
2018-06-17T19:52:05.403Z,58.74
2018-06-17T19:54:39.907Z,59.02
2018-06-17T19:57:14.277Z,59.01
2018-06-17T19:59:48.829Z,58.70
2018-06-17T20:02:18.279Z,59.95
2018-06-17T20:04:47.668Z,59.73
2018-06-17T20:07:16.637Z,60.45
2018-06-17T20:09:46.009Z,60.59
2018-06-17T20:12:15.279Z,61.22
2018-06-17T20:14:44.594Z,61.34
2018-06-17T20:17:13.785Z,61.65
2018-06-17T20:19:43.088Z,61.99
2018-06-17T20:22:12.335Z,62.81
2018-06-17T20:24:41.476Z,63.45
2018-06-17T20:27:10.733Z,63.97
2018-06-17T20:29:39.996Z,64.07
2018-06-17T20:32:14.452Z,63.39
2018-06-17T20:34:48.846Z,64.92
2018-06-17T20:37:23.430Z,64.42
2018-06-17T20:39:56.898Z,65.24
2018-06-17T20:42:31.334Z,64.74
2018-06-17T20:45:00.584Z,65.06
2018-06-17T20:47:29.809Z,64.85
2018-06-17T20:49:59.087Z,64.71
2018-06-17T20:52:28.278Z,65.88
2018-06-17T20:54:57.582Z,66.65
2018-06-17T20:57:26.836Z,66.94
2018-06-17T20:59:56.067Z,67.17
2018-06-17T21:02:25.311Z,67.63
2018-06-17T21:04:54.739Z,68.84
2018-06-17T21:07:24.034Z,69.17
2018-06-17T21:09:53.474Z,69.02
2018-06-17T21:12:22.739Z,69.90
2018-06-17T21:14:52.048Z,69.06
2018-06-17T21:17:21.520Z,68.97
2018-06-17T21:19:56.813Z,68.96
2018-06-17T21:22:31.366Z,68.72
2018-06-17T21:25:06.103Z,68.43
2018-06-17T21:27:40.941Z,68.68
2018-06-17T21:30:11.034Z,69.78
2018-06-17T21:32:40.649Z,68.97
2018-06-17T21:35:10.686Z,70.13
2018-06-17T21:37:39.939Z,70.28
2018-06-17T21:40:09.197Z,70.46
2018-06-17T21:42:38.455Z,70.69
2018-06-17T21:45:07.733Z,70.27
2018-06-17T21:47:37.019Z,71.17
2018-06-17T21:50:06.299Z,71.14
2018-06-17T21:52:35.674Z,72.12
2018-06-17T21:55:04.953Z,72.67
2018-06-17T21:57:34.253Z,72.99
2018-06-17T22:00:03.536Z,73.17
2018-06-17T22:02:32.845Z,73.36
2018-06-17T22:05:02.127Z,71.04
2018-06-17T22:07:31.366Z,69.73
2018-06-17T22:10:05.874Z,70.48
2018-06-17T22:12:43.224Z,69.56
2018-06-17T22:15:17.655Z,68.84
2018-06-17T22:17:51.115Z,69.14
2018-06-17T22:20:20.587Z,70.50
2018-06-17T22:22:49.934Z,72.30
2018-06-17T22:25:19.495Z,73.07
2018-06-17T22:27:48.818Z,73.81
2018-06-17T22:30:18.226Z,73.76
2018-06-17T22:32:47.566Z,74.23
2018-06-17T22:35:16.820Z,74.57
2018-06-17T22:37:46.073Z,74.58
2018-06-17T22:40:15.320Z,75.08
2018-06-17T22:42:44.587Z,74.93
2018-06-17T22:45:13.826Z,75.05
2018-06-17T22:47:48.384Z,74.92
2018-06-17T22:50:17.617Z,75.30
2018-06-17T22:53:04.026Z,75.15
2018-06-17T22:55:33.267Z,75.69
2018-06-17T22:58:07.791Z,75.26
2018-06-17T23:00:42.283Z,75.15
2018-06-17T23:03:16.665Z,75.68
2018-06-17T23:05:51.122Z,75.04
2018-06-17T23:08:25.689Z,74.90
2018-06-17T23:10:54.885Z,75.12
2018-06-17T23:13:24.161Z,75.41
2018-06-17T23:15:53.434Z,75.13
2018-06-17T23:18:22.748Z,74.95
2018-06-17T23:20:52.046Z,75.01
2018-06-17T23:23:21.380Z,74.98
2018-06-17T23:25:50.651Z,75.57
2018-06-17T23:28:19.984Z,75.70
2018-06-17T23:30:49.258Z,74.99
2018-06-17T23:33:18.318Z,75.01
2018-06-17T23:35:47.557Z,75.05
2018-06-17T23:38:16.816Z,75.34
2018-06-17T23:40:46.092Z,73.55
2018-06-17T23:43:15.114Z,73.78
2018-06-17T23:45:49.675Z,72.73
2018-06-17T23:54:21.188Z,72.93
2018-06-17T23:59:47.544Z,73.54
